sensor_id;sensor_type;location;lat;lon;timestamp;P1;durP1;ratioP1;P2;durP2;ratioP2
64094;SDS011;50353;51.420;5.682;2023-04-26T00:02:02;6.13;;;2.13;;
64094;SDS011;50353;51.420;5.682;2023-04-26T00:04:29;4.77;;;2.30;;
64094;SDS011;50353;51.420;5.682;2023-04-26T00:06:54;7.03;;;2.47;;
64094;SDS011;50353;51.420;5.682;2023-04-26T00:09:20;4.90;;;2.50;;
64094;SDS011;50353;51.420;5.682;2023-04-26T00:11:45;6.40;;;2.35;;
64094;SDS011;50353;51.420;5.682;2023-04-26T00:14:11;5.78;;;2.53;;
64094;SDS011;50353;51.420;5.682;2023-04-26T00:16:36;8.05;;;2.72;;
64094;SDS011;50353;51.420;5.682;2023-04-26T00:19:01;8.23;;;2.47;;
64094;SDS011;50353;51.420;5.682;2023-04-26T00:21:28;5.93;;;2.50;;
64094;SDS011;50353;51.420;5.682;2023-04-26T00:23:53;6.10;;;2.50;;
64094;SDS011;50353;51.420;5.682;2023-04-26T00:26:18;7.93;;;2.70;;
64094;SDS011;50353;51.420;5.682;2023-04-26T00:28:44;7.18;;;2.65;;
64094;SDS011;50353;51.420;5.682;2023-04-26T00:31:15;8.80;;;2.90;;
64094;SDS011;50353;51.420;5.682;2023-04-26T00:33:41;8.20;;;3.15;;
64094;SDS011;50353;51.420;5.682;2023-04-26T00:36:07;9.60;;;3.22;;
64094;SDS011;50353;51.420;5.682;2023-04-26T00:38:32;8.13;;;2.70;;
64094;SDS011;50353;51.420;5.682;2023-04-26T00:40:57;10.13;;;2.97;;
64094;SDS011;50353;51.420;5.682;2023-04-26T00:43:23;6.40;;;2.70;;
64094;SDS011;50353;51.420;5.682;2023-04-26T00:45:48;6.53;;;2.60;;
64094;SDS011;50353;51.420;5.682;2023-04-26T00:48:13;8.43;;;2.88;;
64094;SDS011;50353;51.420;5.682;2023-04-26T00:50:39;7.72;;;3.30;;
64094;SDS011;50353;51.420;5.682;2023-04-26T00:53:07;9.48;;;2.88;;
64094;SDS011;50353;51.420;5.682;2023-04-26T00:55:33;5.60;;;2.42;;
64094;SDS011;50353;51.420;5.682;2023-04-26T00:57:58;6.80;;;3.08;;
64094;SDS011;50353;51.420;5.682;2023-04-26T01:00:23;6.25;;;2.63;;
64094;SDS011;50353;51.420;5.682;2023-04-26T01:02:49;7.05;;;3.05;;
64094;SDS011;50353;51.420;5.682;2023-04-26T01:05:15;11.63;;;3.00;;
64094;SDS011;50353;51.420;5.682;2023-04-26T01:07:41;6.55;;;2.72;;
64094;SDS011;50353;51.420;5.682;2023-04-26T01:10:07;6.28;;;2.70;;
64094;SDS011;50353;51.420;5.682;2023-04-26T01:12:34;4.03;;;2.33;;
64094;SDS011;50353;51.420;5.682;2023-04-26T01:15:00;7.10;;;2.78;;
64094;SDS011;50353;51.420;5.682;2023-04-26T01:17:25;6.57;;;2.72;;
64094;SDS011;50353;51.420;5.682;2023-04-26T01:19:51;6.03;;;2.97;;
64094;SDS011;50353;51.420;5.682;2023-04-26T01:22:17;7.00;;;2.75;;
64094;SDS011;50353;51.420;5.682;2023-04-26T01:24:43;7.95;;;2.72;;
64094;SDS011;50353;51.420;5.682;2023-04-26T01:27:10;9.95;;;3.00;;
64094;SDS011;50353;51.420;5.682;2023-04-26T01:29:36;6.88;;;2.90;;
64094;SDS011;50353;51.420;5.682;2023-04-26T01:32:01;6.13;;;3.08;;
64094;SDS011;50353;51.420;5.682;2023-04-26T01:34:26;7.57;;;2.78;;
64094;SDS011;50353;51.420;5.682;2023-04-26T01:36:52;6.03;;;2.53;;
64094;SDS011;50353;51.420;5.682;2023-04-26T01:39:17;5.53;;;2.67;;
64094;SDS011;50353;51.420;5.682;2023-04-26T01:41:43;6.90;;;2.65;;
64094;SDS011;50353;51.420;5.682;2023-04-26T01:44:08;5.43;;;2.90;;
64094;SDS011;50353;51.420;5.682;2023-04-26T01:46:33;8.13;;;3.28;;
64094;SDS011;50353;51.420;5.682;2023-04-26T01:48:59;8.30;;;3.05;;
64094;SDS011;50353;51.420;5.682;2023-04-26T01:51:24;10.77;;;3.30;;
64094;SDS011;50353;51.420;5.682;2023-04-26T01:53:49;7.30;;;3.00;;
64094;SDS011;50353;51.420;5.682;2023-04-26T01:56:15;6.50;;;2.70;;
64094;SDS011;50353;51.420;5.682;2023-04-26T01:58:40;8.73;;;3.00;;
64094;SDS011;50353;51.420;5.682;2023-04-26T02:01:06;5.95;;;2.90;;
64094;SDS011;50353;51.420;5.682;2023-04-26T02:03:33;6.43;;;2.80;;
64094;SDS011;50353;51.420;5.682;2023-04-26T02:05:58;7.40;;;3.10;;
64094;SDS011;50353;51.420;5.682;2023-04-26T02:08:24;7.57;;;3.40;;
64094;SDS011;50353;51.420;5.682;2023-04-26T02:10:49;5.20;;;3.03;;
64094;SDS011;50353;51.420;5.682;2023-04-26T02:13:14;5.70;;;2.92;;
64094;SDS011;50353;51.420;5.682;2023-04-26T02:15:40;7.57;;;2.75;;
64094;SDS011;50353;51.420;5.682;2023-04-26T02:18:06;6.85;;;3.03;;
64094;SDS011;50353;51.420;5.682;2023-04-26T02:20:31;6.47;;;2.97;;
64094;SDS011;50353;51.420;5.682;2023-04-26T02:22:57;9.32;;;3.47;;
64094;SDS011;50353;51.420;5.682;2023-04-26T02:25:22;8.40;;;3.67;;
64094;SDS011;50353;51.420;5.682;2023-04-26T02:27:48;7.47;;;3.25;;
64094;SDS011;50353;51.420;5.682;2023-04-26T02:30:14;7.20;;;3.22;;
64094;SDS011;50353;51.420;5.682;2023-04-26T02:32:39;6.57;;;3.25;;
64094;SDS011;50353;51.420;5.682;2023-04-26T02:35:05;7.25;;;3.20;;
64094;SDS011;50353;51.420;5.682;2023-04-26T02:37:31;8.00;;;3.50;;
64094;SDS011;50353;51.420;5.682;2023-04-26T02:39:57;8.80;;;3.15;;
64094;SDS011;50353;51.420;5.682;2023-04-26T02:42:23;6.55;;;3.00;;
64094;SDS011;50353;51.420;5.682;2023-04-26T02:44:48;8.48;;;3.67;;
64094;SDS011;50353;51.420;5.682;2023-04-26T02:47:14;7.43;;;3.10;;
64094;SDS011;50353;51.420;5.682;2023-04-26T02:49:40;6.45;;;3.40;;
64094;SDS011;50353;51.420;5.682;2023-04-26T02:52:05;8.10;;;3.17;;
64094;SDS011;50353;51.420;5.682;2023-04-26T02:54:31;7.47;;;3.50;;
64094;SDS011;50353;51.420;5.682;2023-04-26T02:56:56;7.75;;;3.38;;
64094;SDS011;50353;51.420;5.682;2023-04-26T02:59:22;6.75;;;3.20;;
64094;SDS011;50353;51.420;5.682;2023-04-26T03:01:48;6.90;;;3.58;;
64094;SDS011;50353;51.420;5.682;2023-04-26T03:04:13;10.13;;;3.60;;
64094;SDS011;50353;51.420;5.682;2023-04-26T03:06:41;8.93;;;3.20;;
64094;SDS011;50353;51.420;5.682;2023-04-26T03:09:06;8.90;;;3.83;;
64094;SDS011;50353;51.420;5.682;2023-04-26T03:11:31;5.57;;;3.20;;
64094;SDS011;50353;51.420;5.682;2023-04-26T03:13:57;8.27;;;3.35;;
64094;SDS011;50353;51.420;5.682;2023-04-26T03:16:22;6.05;;;3.33;;
64094;SDS011;50353;51.420;5.682;2023-04-26T03:18:48;10.93;;;3.75;;
64094;SDS011;50353;51.420;5.682;2023-04-26T03:21:13;8.10;;;3.50;;
64094;SDS011;50353;51.420;5.682;2023-04-26T03:23:38;12.23;;;4.30;;
64094;SDS011;50353;51.420;5.682;2023-04-26T03:26:04;7.72;;;3.58;;
64094;SDS011;50353;51.420;5.682;2023-04-26T03:28:29;11.07;;;4.30;;
64094;SDS011;50353;51.420;5.682;2023-04-26T03:30:55;6.82;;;3.45;;
64094;SDS011;50353;51.420;5.682;2023-04-26T03:33:20;12.20;;;4.05;;
64094;SDS011;50353;51.420;5.682;2023-04-26T03:35:45;7.55;;;3.95;;
64094;SDS011;50353;51.420;5.682;2023-04-26T03:38:10;7.55;;;3.58;;
64094;SDS011;50353;51.420;5.682;2023-04-26T03:40:36;5.55;;;3.13;;
64094;SDS011;50353;51.420;5.682;2023-04-26T03:43:01;11.10;;;4.18;;
64094;SDS011;50353;51.420;5.682;2023-04-26T03:45:26;8.20;;;3.85;;
64094;SDS011;50353;51.420;5.682;2023-04-26T03:47:52;8.88;;;3.88;;
64094;SDS011;50353;51.420;5.682;2023-04-26T03:50:18;9.38;;;3.40;;
64094;SDS011;50353;51.420;5.682;2023-04-26T03:52:43;9.75;;;3.47;;
64094;SDS011;50353;51.420;5.682;2023-04-26T03:55:09;6.45;;;3.60;;
64094;SDS011;50353;51.420;5.682;2023-04-26T03:57:35;6.40;;;3.53;;
64094;SDS011;50353;51.420;5.682;2023-04-26T04:00:01;8.93;;;3.63;;
64094;SDS011;50353;51.420;5.682;2023-04-26T04:02:30;10.00;;;3.92;;
64094;SDS011;50353;51.420;5.682;2023-04-26T04:04:57;7.53;;;3.85;;
64094;SDS011;50353;51.420;5.682;2023-04-26T04:07:22;7.78;;;3.53;;
64094;SDS011;50353;51.420;5.682;2023-04-26T04:09:47;11.18;;;3.58;;
64094;SDS011;50353;51.420;5.682;2023-04-26T04:12:13;7.28;;;3.83;;
64094;SDS011;50353;51.420;5.682;2023-04-26T04:14:38;8.27;;;4.10;;
64094;SDS011;50353;51.420;5.682;2023-04-26T04:17:03;9.02;;;3.97;;
64094;SDS011;50353;51.420;5.682;2023-04-26T04:19:29;8.45;;;3.90;;
64094;SDS011;50353;51.420;5.682;2023-04-26T04:21:54;8.52;;;3.65;;
64094;SDS011;50353;51.420;5.682;2023-04-26T04:24:19;9.73;;;4.15;;
64094;SDS011;50353;51.420;5.682;2023-04-26T04:26:44;10.07;;;4.47;;
64094;SDS011;50353;51.420;5.682;2023-04-26T04:29:10;8.13;;;4.35;;
64094;SDS011;50353;51.420;5.682;2023-04-26T04:31:35;9.30;;;4.90;;
64094;SDS011;50353;51.420;5.682;2023-04-26T04:34:01;10.23;;;4.47;;
64094;SDS011;50353;51.420;5.682;2023-04-26T04:36:26;8.85;;;4.90;;
64094;SDS011;50353;51.420;5.682;2023-04-26T04:38:52;10.38;;;4.97;;
64094;SDS011;50353;51.420;5.682;2023-04-26T04:41:17;12.88;;;4.90;;
64094;SDS011;50353;51.420;5.682;2023-04-26T04:43:44;9.63;;;5.25;;
64094;SDS011;50353;51.420;5.682;2023-04-26T04:46:09;9.85;;;4.95;;
64094;SDS011;50353;51.420;5.682;2023-04-26T04:48:34;9.70;;;4.75;;
64094;SDS011;50353;51.420;5.682;2023-04-26T04:51:02;10.68;;;5.35;;
64094;SDS011;50353;51.420;5.682;2023-04-26T04:53:28;10.02;;;4.80;;
64094;SDS011;50353;51.420;5.682;2023-04-26T04:55:53;12.40;;;5.43;;
64094;SDS011;50353;51.420;5.682;2023-04-26T04:58:18;12.70;;;5.40;;
64094;SDS011;50353;51.420;5.682;2023-04-26T05:00:46;10.77;;;5.10;;
64094;SDS011;50353;51.420;5.682;2023-04-26T05:03:12;10.95;;;5.20;;
64094;SDS011;50353;51.420;5.682;2023-04-26T05:05:38;11.65;;;5.30;;
64094;SDS011;50353;51.420;5.682;2023-04-26T05:08:04;10.18;;;5.10;;
64094;SDS011;50353;51.420;5.682;2023-04-26T05:10:31;8.13;;;5.40;;
64094;SDS011;50353;51.420;5.682;2023-04-26T05:12:58;8.85;;;5.35;;
64094;SDS011;50353;51.420;5.682;2023-04-26T05:15:23;10.30;;;4.68;;
64094;SDS011;50353;51.420;5.682;2023-04-26T05:17:49;7.88;;;4.95;;
64094;SDS011;50353;51.420;5.682;2023-04-26T05:20:15;11.30;;;5.38;;
64094;SDS011;50353;51.420;5.682;2023-04-26T05:22:40;13.00;;;5.63;;
64094;SDS011;50353;51.420;5.682;2023-04-26T05:25:06;16.08;;;5.88;;
64094;SDS011;50353;51.420;5.682;2023-04-26T05:27:32;10.53;;;6.10;;
64094;SDS011;50353;51.420;5.682;2023-04-26T05:29:59;15.98;;;7.28;;
64094;SDS011;50353;51.420;5.682;2023-04-26T05:32:25;14.73;;;7.35;;
64094;SDS011;50353;51.420;5.682;2023-04-26T05:34:50;12.15;;;7.55;;
64094;SDS011;50353;51.420;5.682;2023-04-26T05:37:16;15.23;;;8.10;;
64094;SDS011;50353;51.420;5.682;2023-04-26T05:39:41;16.00;;;7.53;;
64094;SDS011;50353;51.420;5.682;2023-04-26T05:42:07;18.45;;;8.23;;
64094;SDS011;50353;51.420;5.682;2023-04-26T05:44:33;16.13;;;8.10;;
64094;SDS011;50353;51.420;5.682;2023-04-26T05:46:58;16.35;;;7.78;;
64094;SDS011;50353;51.420;5.682;2023-04-26T05:49:23;17.25;;;9.13;;
64094;SDS011;50353;51.420;5.682;2023-04-26T05:51:49;40.90;;;20.80;;
64094;SDS011;50353;51.420;5.682;2023-04-26T05:54:14;13.00;;;7.88;;
64094;SDS011;50353;51.420;5.682;2023-04-26T05:56:39;17.90;;;7.68;;
64094;SDS011;50353;51.420;5.682;2023-04-26T05:59:05;14.25;;;8.23;;
64094;SDS011;50353;51.420;5.682;2023-04-26T06:01:30;15.55;;;8.52;;
64094;SDS011;50353;51.420;5.682;2023-04-26T06:03:56;16.42;;;8.35;;
64094;SDS011;50353;51.420;5.682;2023-04-26T06:06:21;16.95;;;8.43;;
64094;SDS011;50353;51.420;5.682;2023-04-26T06:08:46;13.63;;;8.52;;
64094;SDS011;50353;51.420;5.682;2023-04-26T06:11:11;16.08;;;8.60;;
64094;SDS011;50353;51.420;5.682;2023-04-26T06:13:37;14.48;;;8.25;;
64094;SDS011;50353;51.420;5.682;2023-04-26T06:16:02;16.73;;;9.00;;
64094;SDS011;50353;51.420;5.682;2023-04-26T06:18:27;15.23;;;8.93;;
64094;SDS011;50353;51.420;5.682;2023-04-26T06:20:53;16.92;;;8.90;;
64094;SDS011;50353;51.420;5.682;2023-04-26T06:23:18;16.58;;;8.43;;
64094;SDS011;50353;51.420;5.682;2023-04-26T06:25:43;16.52;;;9.55;;
64094;SDS011;50353;51.420;5.682;2023-04-26T06:28:10;14.05;;;7.68;;
64094;SDS011;50353;51.420;5.682;2023-04-26T06:30:36;13.38;;;7.53;;
64094;SDS011;50353;51.420;5.682;2023-04-26T06:33:01;14.02;;;7.20;;
64094;SDS011;50353;51.420;5.682;2023-04-26T06:35:26;16.60;;;8.20;;
64094;SDS011;50353;51.420;5.682;2023-04-26T06:37:52;16.10;;;8.20;;
64094;SDS011;50353;51.420;5.682;2023-04-26T06:40:17;13.52;;;7.75;;
64094;SDS011;50353;51.420;5.682;2023-04-26T06:42:43;13.15;;;8.25;;
64094;SDS011;50353;51.420;5.682;2023-04-26T06:45:08;16.20;;;7.45;;
64094;SDS011;50353;51.420;5.682;2023-04-26T06:47:34;13.80;;;7.30;;
64094;SDS011;50353;51.420;5.682;2023-04-26T06:49:59;16.13;;;7.50;;
64094;SDS011;50353;51.420;5.682;2023-04-26T06:52:25;15.35;;;7.20;;
64094;SDS011;50353;51.420;5.682;2023-04-26T06:54:50;16.63;;;8.20;;
64094;SDS011;50353;51.420;5.682;2023-04-26T06:57:15;12.77;;;6.75;;
64094;SDS011;50353;51.420;5.682;2023-04-26T06:59:41;12.10;;;6.65;;
64094;SDS011;50353;51.420;5.682;2023-04-26T07:02:06;15.85;;;6.82;;
64094;SDS011;50353;51.420;5.682;2023-04-26T07:04:32;9.95;;;6.40;;
64094;SDS011;50353;51.420;5.682;2023-04-26T07:06:57;12.80;;;6.57;;
64094;SDS011;50353;51.420;5.682;2023-04-26T07:09:22;12.05;;;6.35;;
64094;SDS011;50353;51.420;5.682;2023-04-26T07:11:48;12.60;;;6.63;;
64094;SDS011;50353;51.420;5.682;2023-04-26T07:14:13;13.52;;;6.20;;
64094;SDS011;50353;51.420;5.682;2023-04-26T07:16:38;12.95;;;6.10;;
64094;SDS011;50353;51.420;5.682;2023-04-26T07:19:04;12.52;;;6.07;;
64094;SDS011;50353;51.420;5.682;2023-04-26T07:21:30;16.45;;;6.65;;
64094;SDS011;50353;51.420;5.682;2023-04-26T07:23:55;13.35;;;6.10;;
64094;SDS011;50353;51.420;5.682;2023-04-26T07:26:22;16.27;;;6.60;;
64094;SDS011;50353;51.420;5.682;2023-04-26T07:28:47;12.63;;;6.20;;
64094;SDS011;50353;51.420;5.682;2023-04-26T07:31:14;15.30;;;6.50;;
64094;SDS011;50353;51.420;5.682;2023-04-26T07:33:40;14.50;;;5.85;;
64094;SDS011;50353;51.420;5.682;2023-04-26T07:36:05;13.70;;;5.25;;
64094;SDS011;50353;51.420;5.682;2023-04-26T07:38:31;11.75;;;5.10;;
64094;SDS011;50353;51.420;5.682;2023-04-26T07:40:56;13.75;;;6.00;;
64094;SDS011;50353;51.420;5.682;2023-04-26T07:43:22;17.88;;;6.45;;
64094;SDS011;50353;51.420;5.682;2023-04-26T07:45:47;12.07;;;5.88;;
64094;SDS011;50353;51.420;5.682;2023-04-26T07:48:12;10.50;;;4.90;;
64094;SDS011;50353;51.420;5.682;2023-04-26T07:50:38;9.75;;;4.72;;
64094;SDS011;50353;51.420;5.682;2023-04-26T07:53:03;14.27;;;4.47;;
64094;SDS011;50353;51.420;5.682;2023-04-26T07:55:29;10.75;;;4.07;;
64094;SDS011;50353;51.420;5.682;2023-04-26T07:57:54;9.07;;;3.55;;
64094;SDS011;50353;51.420;5.682;2023-04-26T08:00:19;9.88;;;4.35;;
64094;SDS011;50353;51.420;5.682;2023-04-26T08:02:46;7.35;;;3.50;;
64094;SDS011;50353;51.420;5.682;2023-04-26T08:05:12;12.43;;;3.50;;
64094;SDS011;50353;51.420;5.682;2023-04-26T08:07:38;15.30;;;3.30;;
64094;SDS011;50353;51.420;5.682;2023-04-26T08:10:04;7.90;;;3.60;;
64094;SDS011;50353;51.420;5.682;2023-04-26T08:12:30;11.98;;;3.67;;
64094;SDS011;50353;51.420;5.682;2023-04-26T08:14:56;9.57;;;3.30;;
64094;SDS011;50353;51.420;5.682;2023-04-26T08:17:24;7.90;;;2.95;;
64094;SDS011;50353;51.420;5.682;2023-04-26T08:19:49;6.82;;;2.72;;
64094;SDS011;50353;51.420;5.682;2023-04-26T08:22:14;10.68;;;2.90;;
64094;SDS011;50353;51.420;5.682;2023-04-26T08:24:40;6.43;;;2.17;;
64094;SDS011;50353;51.420;5.682;2023-04-26T08:27:05;6.57;;;2.28;;
64094;SDS011;50353;51.420;5.682;2023-04-26T08:29:30;10.30;;;2.58;;
64094;SDS011;50353;51.420;5.682;2023-04-26T08:31:55;5.97;;;2.30;;
64094;SDS011;50353;51.420;5.682;2023-04-26T08:34:21;8.02;;;2.40;;
64094;SDS011;50353;51.420;5.682;2023-04-26T08:36:46;7.50;;;2.20;;
64094;SDS011;50353;51.420;5.682;2023-04-26T08:39:11;8.10;;;2.67;;
64094;SDS011;50353;51.420;5.682;2023-04-26T08:41:43;9.00;;;2.10;;
64094;SDS011;50353;51.420;5.682;2023-04-26T08:44:13;6.55;;;2.05;;
64094;SDS011;50353;51.420;5.682;2023-04-26T08:49:39;7.07;;;2.08;;
64094;SDS011;50353;51.420;5.682;2023-04-26T08:52:09;3.53;;;2.20;;
64094;SDS011;50353;51.420;5.682;2023-04-26T08:54:36;6.25;;;1.40;;
64094;SDS011;50353;51.420;5.682;2023-04-26T08:57:02;7.00;;;1.50;;
64094;SDS011;50353;51.420;5.682;2023-04-26T08:59:28;8.35;;;1.92;;
64094;SDS011;50353;51.420;5.682;2023-04-26T09:04:21;7.73;;;1.83;;
64094;SDS011;50353;51.420;5.682;2023-04-26T09:06:47;4.25;;;1.98;;
64094;SDS011;50353;51.420;5.682;2023-04-26T09:09:14;8.25;;;1.95;;
64094;SDS011;50353;51.420;5.682;2023-04-26T09:11:53;4.60;;;1.73;;
64094;SDS011;50353;51.420;5.682;2023-04-26T09:14:23;6.25;;;2.28;;
64094;SDS011;50353;51.420;5.682;2023-04-26T09:16:49;7.53;;;2.05;;
64094;SDS011;50353;51.420;5.682;2023-04-26T09:19:14;6.53;;;1.98;;
64094;SDS011;50353;51.420;5.682;2023-04-26T09:21:41;6.45;;;1.80;;
64094;SDS011;50353;51.420;5.682;2023-04-26T09:24:11;6.63;;;2.65;;
64094;SDS011;50353;51.420;5.682;2023-04-26T09:26:37;6.18;;;1.90;;
64094;SDS011;50353;51.420;5.682;2023-04-26T09:29:12;7.30;;;2.13;;
64094;SDS011;50353;51.420;5.682;2023-04-26T09:31:45;5.65;;;1.73;;
64094;SDS011;50353;51.420;5.682;2023-04-26T09:34:13;6.78;;;2.20;;
64094;SDS011;50353;51.420;5.682;2023-04-26T09:36:45;12.25;;;2.17;;
64094;SDS011;50353;51.420;5.682;2023-04-26T09:39:10;6.10;;;1.80;;
64094;SDS011;50353;51.420;5.682;2023-04-26T09:41:42;9.23;;;1.95;;
64094;SDS011;50353;51.420;5.682;2023-04-26T09:44:27;5.15;;;1.92;;
64094;SDS011;50353;51.420;5.682;2023-04-26T09:47:11;8.40;;;2.35;;
64094;SDS011;50353;51.420;5.682;2023-04-26T09:49:49;5.18;;;1.95;;
64094;SDS011;50353;51.420;5.682;2023-04-26T09:52:16;6.93;;;2.22;;
64094;SDS011;50353;51.420;5.682;2023-04-26T09:57:09;4.22;;;1.80;;
64094;SDS011;50353;51.420;5.682;2023-04-26T09:59:53;5.68;;;2.15;;
64094;SDS011;50353;51.420;5.682;2023-04-26T10:04:51;7.20;;;1.90;;
64094;SDS011;50353;51.420;5.682;2023-04-26T10:07:19;4.53;;;2.00;;
64094;SDS011;50353;51.420;5.682;2023-04-26T10:09:45;8.35;;;2.08;;
64094;SDS011;50353;51.420;5.682;2023-04-26T10:12:12;5.65;;;2.33;;
64094;SDS011;50353;51.420;5.682;2023-04-26T10:17:05;8.32;;;2.28;;
64094;SDS011;50353;51.420;5.682;2023-04-26T10:19:34;5.90;;;2.50;;
64094;SDS011;50353;51.420;5.682;2023-04-26T10:22:03;5.68;;;2.40;;
64094;SDS011;50353;51.420;5.682;2023-04-26T10:24:42;4.28;;;2.10;;
64094;SDS011;50353;51.420;5.682;2023-04-26T10:27:08;5.40;;;1.83;;
64094;SDS011;50353;51.420;5.682;2023-04-26T10:32:17;8.23;;;2.17;;
64094;SDS011;50353;51.420;5.682;2023-04-26T10:34:43;6.93;;;2.47;;
64094;SDS011;50353;51.420;5.682;2023-04-26T10:37:29;9.13;;;2.92;;
64094;SDS011;50353;51.420;5.682;2023-04-26T10:39:54;8.38;;;2.97;;
64094;SDS011;50353;51.420;5.682;2023-04-26T10:42:49;7.28;;;2.47;;
64094;SDS011;50353;51.420;5.682;2023-04-26T10:45:27;6.38;;;2.33;;
64094;SDS011;50353;51.420;5.682;2023-04-26T10:56:48;9.45;;;2.38;;
64094;SDS011;50353;51.420;5.682;2023-04-26T10:59:12;8.80;;;2.22;;
64094;SDS011;50353;51.420;5.682;2023-04-26T11:01:43;7.13;;;2.20;;
64094;SDS011;50353;51.420;5.682;2023-04-26T11:04:09;5.57;;;2.28;;
64094;SDS011;50353;51.420;5.682;2023-04-26T11:12:13;5.75;;;2.05;;
64094;SDS011;50353;51.420;5.682;2023-04-26T11:14:40;5.63;;;2.20;;
64094;SDS011;50353;51.420;5.682;2023-04-26T11:17:06;7.57;;;2.30;;
64094;SDS011;50353;51.420;5.682;2023-04-26T11:19:32;4.33;;;2.00;;
64094;SDS011;50353;51.420;5.682;2023-04-26T11:21:59;6.90;;;2.30;;
64094;SDS011;50353;51.420;5.682;2023-04-26T11:24:31;9.48;;;2.20;;
64094;SDS011;50353;51.420;5.682;2023-04-26T11:26:57;7.50;;;2.30;;
64094;SDS011;50353;51.420;5.682;2023-04-26T11:29:23;8.35;;;2.35;;
64094;SDS011;50353;51.420;5.682;2023-04-26T11:31:50;7.50;;;2.20;;
64094;SDS011;50353;51.420;5.682;2023-04-26T11:34:37;6.28;;;2.63;;
64094;SDS011;50353;51.420;5.682;2023-04-26T11:37:05;5.63;;;2.30;;
64094;SDS011;50353;51.420;5.682;2023-04-26T11:39:32;6.00;;;2.38;;
64094;SDS011;50353;51.420;5.682;2023-04-26T11:42:07;7.00;;;2.10;;
64094;SDS011;50353;51.420;5.682;2023-04-26T11:44:34;4.00;;;2.30;;
64094;SDS011;50353;51.420;5.682;2023-04-26T11:47:00;5.75;;;2.30;;
64094;SDS011;50353;51.420;5.682;2023-04-26T11:49:27;19.95;;;8.13;;
64094;SDS011;50353;51.420;5.682;2023-04-26T11:51:53;6.40;;;2.42;;
64094;SDS011;50353;51.420;5.682;2023-04-26T11:54:25;13.88;;;7.18;;
64094;SDS011;50353;51.420;5.682;2023-04-26T11:56:52;12.57;;;6.53;;
64094;SDS011;50353;51.420;5.682;2023-04-26T11:59:24;4.75;;;2.20;;
64094;SDS011;50353;51.420;5.682;2023-04-26T12:01:50;7.82;;;2.55;;
64094;SDS011;50353;51.420;5.682;2023-04-26T12:04:18;6.47;;;2.35;;
64094;SDS011;50353;51.420;5.682;2023-04-26T12:06:51;12.35;;;5.45;;
64094;SDS011;50353;51.420;5.682;2023-04-26T12:09:21;16.15;;;7.03;;
64094;SDS011;50353;51.420;5.682;2023-04-26T12:11:52;6.82;;;3.25;;
64094;SDS011;50353;51.420;5.682;2023-04-26T12:14:23;10.52;;;2.38;;
64094;SDS011;50353;51.420;5.682;2023-04-26T12:16:58;6.40;;;2.30;;
64094;SDS011;50353;51.420;5.682;2023-04-26T12:19:25;10.40;;;2.60;;
64094;SDS011;50353;51.420;5.682;2023-04-26T12:21:51;7.85;;;2.45;;
64094;SDS011;50353;51.420;5.682;2023-04-26T12:24:21;7.30;;;2.80;;
64094;SDS011;50353;51.420;5.682;2023-04-26T12:26:50;7.97;;;2.70;;
64094;SDS011;50353;51.420;5.682;2023-04-26T12:29:16;7.10;;;2.78;;
64094;SDS011;50353;51.420;5.682;2023-04-26T12:31:41;10.40;;;2.58;;
64094;SDS011;50353;51.420;5.682;2023-04-26T12:34:06;10.30;;;2.90;;
64094;SDS011;50353;51.420;5.682;2023-04-26T12:36:32;5.90;;;2.40;;
64094;SDS011;50353;51.420;5.682;2023-04-26T12:38:57;5.95;;;2.60;;
64094;SDS011;50353;51.420;5.682;2023-04-26T12:41:23;6.68;;;2.72;;
64094;SDS011;50353;51.420;5.682;2023-04-26T12:43:48;7.88;;;3.00;;
64094;SDS011;50353;51.420;5.682;2023-04-26T12:46:13;8.98;;;3.67;;
64094;SDS011;50353;51.420;5.682;2023-04-26T12:48:39;13.70;;;2.83;;
64094;SDS011;50353;51.420;5.682;2023-04-26T12:51:04;9.57;;;3.30;;
64094;SDS011;50353;51.420;5.682;2023-04-26T12:53:30;10.18;;;3.13;;
64094;SDS011;50353;51.420;5.682;2023-04-26T12:55:56;5.25;;;2.20;;
64094;SDS011;50353;51.420;5.682;2023-04-26T12:58:21;7.45;;;2.60;;
64094;SDS011;50353;51.420;5.682;2023-04-26T13:00:47;5.55;;;2.53;;
64094;SDS011;50353;51.420;5.682;2023-04-26T13:03:12;9.73;;;2.80;;
64094;SDS011;50353;51.420;5.682;2023-04-26T13:05:38;6.07;;;2.72;;
64094;SDS011;50353;51.420;5.682;2023-04-26T13:08:04;8.05;;;2.67;;
64094;SDS011;50353;51.420;5.682;2023-04-26T13:10:29;8.60;;;2.85;;
64094;SDS011;50353;51.420;5.682;2023-04-26T13:12:56;7.68;;;2.92;;
64094;SDS011;50353;51.420;5.682;2023-04-26T13:15:22;6.82;;;2.78;;
64094;SDS011;50353;51.420;5.682;2023-04-26T13:17:48;8.60;;;3.03;;
64094;SDS011;50353;51.420;5.682;2023-04-26T13:20:14;7.65;;;2.88;;
64094;SDS011;50353;51.420;5.682;2023-04-26T13:22:39;14.45;;;3.13;;
64094;SDS011;50353;51.420;5.682;2023-04-26T13:27:31;11.40;;;3.20;;
64094;SDS011;50353;51.420;5.682;2023-04-26T13:29:57;7.32;;;2.78;;
64094;SDS011;50353;51.420;5.682;2023-04-26T13:32:22;8.25;;;3.08;;
64094;SDS011;50353;51.420;5.682;2023-04-26T13:34:47;7.15;;;2.70;;
64094;SDS011;50353;51.420;5.682;2023-04-26T13:37:13;8.80;;;2.45;;
64094;SDS011;50353;51.420;5.682;2023-04-26T13:39:41;7.00;;;2.63;;
64094;SDS011;50353;51.420;5.682;2023-04-26T13:42:06;7.80;;;3.00;;
64094;SDS011;50353;51.420;5.682;2023-04-26T13:44:32;10.68;;;2.90;;
64094;SDS011;50353;51.420;5.682;2023-04-26T13:46:57;7.03;;;2.95;;
64094;SDS011;50353;51.420;5.682;2023-04-26T13:49:24;7.68;;;3.13;;
64094;SDS011;50353;51.420;5.682;2023-04-26T13:51:50;6.97;;;3.03;;
64094;SDS011;50353;51.420;5.682;2023-04-26T13:54:17;5.70;;;2.72;;
64094;SDS011;50353;51.420;5.682;2023-04-26T13:56:42;9.35;;;3.22;;
64094;SDS011;50353;51.420;5.682;2023-04-26T13:59:08;8.60;;;3.17;;
64094;SDS011;50353;51.420;5.682;2023-04-26T14:01:33;10.45;;;3.20;;
64094;SDS011;50353;51.420;5.682;2023-04-26T14:04:00;8.00;;;3.03;;
64094;SDS011;50353;51.420;5.682;2023-04-26T14:06:25;5.85;;;2.88;;
64094;SDS011;50353;51.420;5.682;2023-04-26T14:08:50;5.22;;;2.78;;
64094;SDS011;50353;51.420;5.682;2023-04-26T14:11:16;7.85;;;3.38;;
64094;SDS011;50353;51.420;5.682;2023-04-26T14:13:41;8.18;;;2.88;;
64094;SDS011;50353;51.420;5.682;2023-04-26T14:16:07;10.93;;;3.13;;
64094;SDS011;50353;51.420;5.682;2023-04-26T14:18:32;6.82;;;3.25;;
64094;SDS011;50353;51.420;5.682;2023-04-26T14:20:58;6.75;;;3.40;;
64094;SDS011;50353;51.420;5.682;2023-04-26T14:23:23;7.60;;;3.53;;
64094;SDS011;50353;51.420;5.682;2023-04-26T14:25:52;8.15;;;3.63;;
64094;SDS011;50353;51.420;5.682;2023-04-26T14:28:18;8.10;;;3.80;;
64094;SDS011;50353;51.420;5.682;2023-04-26T14:30:44;8.70;;;3.33;;
64094;SDS011;50353;51.420;5.682;2023-04-26T14:33:10;8.52;;;3.90;;
64094;SDS011;50353;51.420;5.682;2023-04-26T14:35:35;6.35;;;3.08;;
64094;SDS011;50353;51.420;5.682;2023-04-26T14:38:00;12.15;;;4.00;;
64094;SDS011;50353;51.420;5.682;2023-04-26T14:40:26;6.07;;;3.45;;
64094;SDS011;50353;51.420;5.682;2023-04-26T14:42:51;7.65;;;3.70;;
64094;SDS011;50353;51.420;5.682;2023-04-26T14:45:16;8.20;;;3.78;;
64094;SDS011;50353;51.420;5.682;2023-04-26T14:47:41;10.20;;;3.67;;
64094;SDS011;50353;51.420;5.682;2023-04-26T14:50:07;11.02;;;4.20;;
64094;SDS011;50353;51.420;5.682;2023-04-26T14:52:34;9.40;;;3.97;;
64094;SDS011;50353;51.420;5.682;2023-04-26T14:55:00;9.13;;;3.40;;
64094;SDS011;50353;51.420;5.682;2023-04-26T14:57:26;8.63;;;3.80;;
64094;SDS011;50353;51.420;5.682;2023-04-26T14:59:51;7.80;;;3.97;;
64094;SDS011;50353;51.420;5.682;2023-04-26T15:02:16;11.10;;;4.22;;
64094;SDS011;50353;51.420;5.682;2023-04-26T15:04:42;8.30;;;3.75;;
64094;SDS011;50353;51.420;5.682;2023-04-26T15:07:07;11.32;;;4.28;;
64094;SDS011;50353;51.420;5.682;2023-04-26T15:09:32;8.05;;;4.00;;
64094;SDS011;50353;51.420;5.682;2023-04-26T15:11:58;11.60;;;4.00;;